Time;durP1;ratioP1;P1;durP2;ratioP2;P2;SDS_P1;SDS_P2;PMS_P1;PMS_P2;Temp;Humidity;BMP_temperature;BMP_pressure;BME280_temperature;BME280_humidity;BME280_pressure;Samples;Min_cycle;Max_cycle;Signal;HPM_P1;HPM_P2
2023/08/12 00:03:55;;;;;;;6.38;2.72;;;;;;;22.45;59.84;100502.50;10376223;28;20046;-70
2023/08/12 00:08:57;;;;;;;6.13;1.98;;;;;;;22.44;60.15;100490.72;10378186;28;20045;-69
2023/08/12 00:13:59;;;;;;;2.80;1.70;;;;;;;22.41;60.41;100493.13;10381507;28;20041;-70
2023/08/12 00:19:01;;;;;;;7.18;2.50;;;;;;;22.23;60.71;100484.06;10381679;28;20266;-70
2023/08/12 00:24:03;;;;;;;3.30;2.65;;;;;;;22.13;60.89;100475.72;10385686;28;20046;-69
2023/08/12 00:29:04;;;;;;;5.90;2.20;;;;;;;22.10;61.12;100470.75;10389455;28;20101;-72
2023/08/12 00:34:05;;;;;;;5.13;2.40;;;;;;;22.20;61.09;100467.34;10386034;28;20042;-70
2023/08/12 00:39:07;;;;;;;5.25;2.13;;;;;;;22.28;60.98;100459.56;10389288;28;20387;-70
2023/08/12 00:44:08;;;;;;;3.40;1.83;;;;;;;22.29;60.96;100452.16;10387756;28;20045;-70
2023/08/12 00:49:11;;;;;;;4.15;1.85;;;;;;;22.10;61.48;100446.09;10388518;28;20065;-70
2023/08/12 00:54:16;;;;;;;11.35;2.20;;;;;;;22.03;61.60;100437.22;10387898;28;20057;-71
2023/08/12 00:59:19;;;;;;;3.25;1.90;;;;;;;22.16;61.46;100426.75;10385364;28;20101;-68
2023/08/12 01:04:21;;;;;;;4.90;1.83;;;;;;;22.26;61.20;100431.59;10386232;28;20389;-70
2023/08/12 01:09:23;;;;;;;3.38;1.52;;;;;;;22.22;61.26;100426.84;10384351;28;20049;-71
2023/08/12 01:14:34;;;;;;;5.22;2.55;;;;;;;22.20;61.51;100426.25;10383349;28;20058;-70
2023/08/12 01:19:40;;;;;;;5.88;1.65;;;;;;;22.22;61.53;100416.72;10384550;28;20054;-71
2023/08/12 01:24:43;;;;;;;4.53;1.40;;;;;;;22.30;61.04;100413.56;10383006;28;20113;-70
2023/08/12 01:29:48;;;;;;;2.97;1.80;;;;;;;22.28;61.64;100401.22;10385900;28;20054;-70
2023/08/12 01:35:17;;;;;;;3.67;1.70;;;;;;;22.34;61.36;100389.25;10402148;28;20069;-70
2023/08/12 01:40:20;;;;;;;2.92;1.65;;;;;;;22.29;61.65;100389.16;10384831;28;20050;-69
2023/08/12 01:45:22;;;;;;;7.57;2.28;;;;;;;22.29;61.78;100392.72;10381421;28;20566;-70
2023/08/12 01:50:25;;;;;;;4.72;2.45;;;;;;;22.17;62.26;100401.00;10384444;28;20068;-70
2023/08/12 01:55:26;;;;;;;2.95;2.40;;;;;;;22.29;61.95;100389.97;10369215;28;20069;-71
2023/08/12 02:00:28;;;;;;;4.78;2.08;;;;;;;22.25;62.03;100388.84;10368028;28;20120;-70
2023/08/12 02:05:29;;;;;;;3.38;2.30;;;;;;;22.24;62.35;100405.50;10386515;28;20081;-71
2023/08/12 02:10:31;;;;;;;7.90;2.38;;;;;;;22.40;62.01;100390.16;10383418;28;20095;-71
2023/08/12 02:15:35;;;;;;;5.18;2.20;;;;;;;22.52;61.80;100397.16;10386543;28;20113;-71
2023/08/12 02:20:37;;;;;;;4.18;2.03;;;;;;;22.53;62.10;100392.50;10383730;28;20104;-71
2023/08/12 02:25:38;;;;;;;6.68;1.92;;;;;;;22.53;61.89;100393.34;10380207;28;20362;-71
2023/08/12 02:30:43;;;;;;;3.97;2.22;;;;;;;22.52;62.17;100401.81;10384306;28;20061;-69
2023/08/12 02:35:44;;;;;;;2.38;1.92;;;;;;;22.45;62.47;100410.19;10383526;28;20117;-71
2023/08/12 02:40:49;;;;;;;4.25;2.50;;;;;;;22.41;62.89;100419.19;10385211;28;20342;-71
2023/08/12 02:45:50;;;;;;;4.45;2.75;;;;;;;22.37;63.14;100416.97;10383459;28;20109;-71
2023/08/12 02:50:52;;;;;;;5.03;2.08;;;;;;;22.36;63.07;100420.78;10379759;28;20057;-70
2023/08/12 02:55:53;;;;;;;5.20;2.40;;;;;;;22.21;63.61;100436.94;10385273;28;20060;-69
2023/08/12 03:00:55;;;;;;;4.00;2.38;;;;;;;22.11;64.75;100450.47;10382851;28;20073;-70
2023/08/12 03:05:56;;;;;;;5.35;3.00;;;;;;;22.24;64.73;100472.09;10381761;28;21180;-69
2023/08/12 03:10:59;;;;;;;4.32;2.88;;;;;;;22.13;65.20;100442.84;10383958;28;20069;-70
2023/08/12 03:16:01;;;;;;;9.80;2.63;;;;;;;21.86;66.49;100456.38;10379669;28;20077;-68
2023/08/12 03:21:08;;;;;;;5.50;2.78;;;;;;;21.68;67.15;100436.41;10378866;28;20038;-69
2023/08/12 03:26:10;;;;;;;5.97;3.45;;;;;;;21.54;68.42;100448.72;10382558;28;20056;-68
2023/08/12 03:31:12;;;;;;;5.65;3.40;;;;;;;21.16;69.71;100450.19;10382257;28;20065;-69
2023/08/12 03:36:13;;;;;;;9.02;3.63;;;;;;;21.19;70.17;100466.09;10380446;28;20046;-70
2023/08/12 03:41:15;;;;;;;5.80;3.55;;;;;;;20.84;71.43;100471.69;10381458;28;20061;-71
2023/08/12 03:46:17;;;;;;;6.70;4.50;;;;;;;20.86;72.14;100459.44;10378493;28;20046;-71
2023/08/12 03:51:18;;;;;;;6.63;4.20;;;;;;;20.93;72.80;100446.47;10380304;28;20088;-71
2023/08/12 03:56:20;;;;;;;8.30;4.68;;;;;;;21.06;73.08;100459.00;10380557;28;20145;-71
2023/08/12 04:01:21;;;;;;;11.98;5.00;;;;;;;21.07;73.53;100449.75;10380020;28;20053;-72
2023/08/12 04:06:23;;;;;;;7.45;4.57;;;;;;;21.12;73.72;100425.22;10378172;28;20148;-71
2023/08/12 04:11:24;;;;;;;9.65;4.88;;;;;;;21.07;73.80;100429.75;10381324;28;20338;-72
2023/08/12 04:16:26;;;;;;;6.65;4.68;;;;;;;21.09;73.88;100417.53;10380327;28;20391;-72
2023/08/12 04:21:28;;;;;;;8.63;4.40;;;;;;;21.08;74.28;100418.59;10380353;28;20061;-73
2023/08/12 04:26:29;;;;;;;7.30;5.05;;;;;;;21.14;74.34;100384.81;10377603;28;20042;-73
2023/08/12 04:31:31;;;;;;;12.23;6.68;;;;;;;21.16;75.07;100390.03;10379865;28;20049;-73
2023/08/12 04:36:32;;;;;;;9.18;7.57;;;;;;;21.20;75.35;100383.00;10379170;28;20505;-72
2023/08/12 04:41:34;;;;;;;12.82;8.00;;;;;;;21.21;75.68;100387.41;10378653;28;20049;-73
2023/08/12 04:46:35;;;;;;;12.90;7.93;;;;;;;21.24;75.63;100392.38;10381279;28;20113;-73
2023/08/12 04:51:37;;;;;;;14.95;8.95;;;;;;;21.33;75.47;100390.06;10381418;28;20066;-72
2023/08/12 04:56:38;;;;;;;14.27;8.30;;;;;;;21.44;75.85;100391.91;10377872;28;20246;-73
2023/08/12 05:01:40;;;;;;;10.13;7.32;;;;;;;21.53;75.55;100381.41;10381764;28;20313;-72
2023/08/12 05:07:01;;;;;;;9.45;6.70;;;;;;;21.51;75.72;100378.09;10380700;28;20076;-72
2023/08/12 05:12:03;;;;;;;9.52;6.25;;;;;;;21.59;75.37;100377.69;10388802;28;20053;-72
2023/08/12 05:17:05;;;;;;;7.75;5.68;;;;;;;21.67;75.11;100365.50;10386698;28;20061;-73
2023/08/12 05:22:06;;;;;;;11.48;6.43;;;;;;;21.69;75.37;100371.56;10390036;28;20053;-72
2023/08/12 05:27:08;;;;;;;11.70;6.38;;;;;;;21.77;74.89;100365.66;10393623;28;20038;-72
2023/08/12 05:32:09;;;;;;;11.27;7.30;;;;;;;21.87;74.83;100370.47;10387627;28;20065;-72
2023/08/12 05:37:11;;;;;;;9.48;6.85;;;;;;;21.91;74.87;100372.44;10383924;28;20045;-73
2023/08/12 05:42:13;;;;;;;10.52;6.43;;;;;;;21.98;74.93;100372.28;10384629;28;20295;-71
2023/08/12 05:47:14;;;;;;;9.07;6.50;;;;;;;22.05;74.68;100383.88;10386097;28;20037;-72
2023/08/12 05:52:16;;;;;;;12.02;6.00;;;;;;;22.04;74.69;100390.44;10384703;28;20655;-72
2023/08/12 05:57:17;;;;;;;7.50;5.68;;;;;;;22.03;74.67;100393.41;10385625;28;20066;-71
2023/08/12 06:02:19;;;;;;;8.95;6.03;;;;;;;22.05;74.57;100392.06;10386163;28;20042;-72
2023/08/12 06:07:20;;;;;;;9.60;6.07;;;;;;;22.05;74.35;100396.72;10383250;28;20073;-72
2023/08/12 06:12:22;;;;;;;6.28;5.68;;;;;;;22.13;74.38;100397.13;10385087;28;20045;-71
2023/08/12 06:17:23;;;;;;;8.00;5.65;;;;;;;22.17;74.12;100416.63;10384585;28;20081;-68
2023/08/12 06:22:25;;;;;;;11.10;6.10;;;;;;;22.17;74.27;100411.97;10392480;28;20057;-70
2023/08/12 06:27:26;;;;;;;9.80;5.82;;;;;;;22.25;74.00;100413.47;10383570;28;20050;-72
2023/08/12 06:32:27;;;;;;;6.47;5.22;;;;;;;22.32;74.05;100419.63;10384052;28;20354;-71
2023/08/12 06:37:29;;;;;;;8.07;5.68;;;;;;;22.34;74.14;100420.19;10381094;28;20254;-72
2023/08/12 06:42:30;;;;;;;9.95;5.00;;;;;;;22.59;73.76;100421.63;10381391;28;20338;-71
2023/08/12 06:47:32;;;;;;;7.05;4.88;;;;;;;22.74;73.33;100431.94;10382838;28;20053;-69
2023/08/12 06:52:33;;;;;;;6.45;5.20;;;;;;;22.70;73.30;100423.41;10383846;28;20050;-72
2023/08/12 06:57:35;;;;;;;6.75;5.38;;;;;;;22.65;73.28;100423.34;10383537;28;20058;-73
2023/08/12 07:02:36;;;;;;;9.32;4.75;;;;;;;22.83;72.26;100418.63;10382253;28;20049;-72
2023/08/12 07:07:38;;;;;;;6.75;4.57;;;;;;;22.75;72.24;100422.66;10381729;28;20050;-72
2023/08/12 07:12:39;;;;;;;6.45;4.55;;;;;;;22.96;71.82;100418.22;10383312;28;20056;-71
2023/08/12 07:17:41;;;;;;;7.10;4.93;;;;;;;23.13;71.37;100429.16;10388399;28;20053;-69
2023/08/12 07:22:42;;;;;;;6.82;5.10;;;;;;;23.15;71.22;100430.53;10381391;28;20061;-69
2023/08/12 07:27:44;;;;;;;5.75;4.07;;;;;;;23.41;70.82;100421.75;10380707;28;20113;-69
2023/08/12 07:32:45;;;;;;;24.05;5.72;;;;;;;23.82;69.83;100431.22;10381525;28;20117;-70
2023/08/12 07:37:47;;;;;;;6.70;4.22;;;;;;;24.05;69.06;100409.94;10381185;28;20065;-72
2023/08/12 07:42:48;;;;;;;7.57;4.50;;;;;;;24.34;68.36;100408.47;10382387;28;20084;-70
2023/08/12 07:47:50;;;;;;;8.13;4.45;;;;;;;24.38;68.26;100416.19;10381401;28;20072;-71
2023/08/12 07:52:52;;;;;;;5.60;3.75;;;;;;;24.48;67.56;100411.56;10381865;28;20080;-71
2023/08/12 07:57:53;;;;;;;8.02;4.63;;;;;;;24.91;67.30;100417.84;10379935;28;20061;-71
2023/08/12 08:02:54;;;;;;;7.63;3.67;;;;;;;25.26;66.47;100419.06;10377379;28;20057;-70
2023/08/12 08:07:56;;;;;;;6.95;3.95;;;;;;;25.59;66.52;100416.06;10379182;28;20049;-71
2023/08/12 08:12:58;;;;;;;6.47;4.15;;;;;;;25.75;65.96;100417.75;10377129;28;20224;-70
2023/08/12 08:17:59;;;;;;;5.65;4.30;;;;;;;25.71;65.68;100419.38;10377891;28;20061;-71
2023/08/12 08:23:03;;;;;;;6.03;4.13;;;;;;;25.50;66.07;100389.09;10379075;28;20053;-71
2023/08/12 08:28:04;;;;;;;8.35;4.35;;;;;;;25.70;64.90;100409.47;10380901;28;20054;-69
2023/08/12 08:33:06;;;;;;;4.88;3.70;;;;;;;25.71;65.45;100408.34;10379092;28;20054;-70
2023/08/12 08:38:07;;;;;;;3.90;3.30;;;;;;;25.89;65.33;100410.56;10379624;28;20042;-70
2023/08/12 08:43:09;;;;;;;5.60;3.92;;;;;;;25.89;65.41;100416.06;10376683;28;20048;-70
2023/08/12 08:48:11;;;;;;;5.05;4.03;;;;;;;25.99;64.60;100419.94;10388285;28;20054;-71
2023/08/12 08:53:15;;;;;;;4.47;3.47;;;;;;;26.18;64.46;100403.66;10401981;28;20293;-73
2023/08/12 08:58:17;;;;;;;3.80;3.05;;;;;;;26.73;63.23;100390.00;10385638;28;20042;-71
2023/08/12 09:03:24;;;;;;;;;;;;;;;26.86;64.50;100401.25;10385489;28;20088;-71
2023/08/12 09:08:26;;;;;;;6.45;4.03;;;;;;;27.00;63.25;100393.16;10384809;28;19925;-72
2023/08/12 09:13:29;;;;;;;4.38;3.90;;;;;;;26.78;63.77;100387.19;10387412;28;20042;-72
2023/08/12 09:18:31;;;;;;;5.28;3.72;;;;;;;26.91;63.60;100375.56;10382513;28;20042;-73
2023/08/12 09:23:38;;;;;;;3.58;3.15;;;;;;;26.80;63.67;100377.56;10384586;28;20066;-74
2023/08/12 09:28:39;;;;;;;4.00;3.33;;;;;;;26.80;63.30;100377.56;10385718;28;20391;-73
2023/08/12 09:33:40;;;;;;;4.05;3.17;;;;;;;26.70;63.94;100391.41;10384875;28;20096;-73
2023/08/12 09:38:42;;;;;;;3.38;2.88;;;;;;;26.40;64.56;100390.38;10384155;28;20074;-70
2023/08/12 09:43:44;;;;;;;6.40;3.40;;;;;;;26.29;64.28;100377.72;10385900;28;20049;-74
2023/08/12 09:48:45;;;;;;;3.15;2.65;;;;;;;26.43;63.78;100377.97;10382750;28;20103;-74
2023/08/12 09:53:51;;;;;;;3.53;2.92;;;;;;;26.67;62.99;100348.66;10379816;28;20101;-76
2023/08/12 09:58:54;;;;;;;3.35;3.05;;;;;;;27.05;62.17;100368.31;10385728;28;20073;-77
2023/08/12 10:03:55;;;;;;;5.82;3.53;;;;;;;27.20;61.36;100372.06;10382891;28;20077;-75
2023/08/12 10:08:58;;;;;;;5.90;3.80;;;;;;;27.37;61.42;100379.97;10380418;28;20052;-75
2023/08/12 10:14:00;;;;;;;5.13;3.47;;;;;;;27.41;61.48;100376.38;10384940;28;20334;-76
2023/08/12 10:19:04;;;;;;;6.53;4.00;;;;;;;27.65;61.05;100373.69;10385331;28;20329;-75
2023/08/12 10:24:06;;;;;;;6.65;4.35;;;;;;;27.66;61.36;100380.00;10384082;28;20061;-75
2023/08/12 10:29:08;;;;;;;6.78;4.57;;;;;;;26.35;66.39;100414.38;10385580;28;20056;-77
2023/08/12 10:34:24;;;;;;;7.03;4.95;;;;;;;25.75;68.34;100445.28;10384983;28;20054;-76
2023/08/12 10:39:31;;;;;;;7.25;4.53;;;;;;;25.39;69.77;100447.16;10382826;28;20076;-77
2023/08/12 10:44:58;;;;;;;9.23;5.32;;;;;;;24.66;71.31;100478.22;10382678;28;20277;-77
2023/08/12 10:50:01;;;;;;;11.85;6.10;;;;;;;23.81;73.71;100451.50;10380598;28;20099;-76
2023/08/12 10:55:21;;;;;;;9.75;5.95;;;;;;;23.45;74.79;100422.88;10382538;28;20053;-77
2023/08/12 11:00:27;;;;;;;14.02;6.93;;;;;;;23.35;74.78;100420.88;10377947;28;20046;-77
2023/08/12 11:05:36;;;;;;;10.65;7.15;;;;;;;23.31;75.00;100392.31;10378895;28;20046;-79
2023/08/12 11:10:38;;;;;;;11.40;7.80;;;;;;;23.21;75.62;100389.47;10379780;28;20046;-73
2023/08/12 11:15:42;;;;;;;15.07;10.02;;;;;;;23.19;76.31;100391.66;10382470;28;20364;-75
2023/08/12 11:20:44;;;;;;;19.52;10.15;;;;;;;23.28;76.28;100368.13;10384587;28;20069;-76
2023/08/12 11:25:49;;;;;;;14.05;10.57;;;;;;;23.37;76.38;100366.56;10387886;28;20042;-77
2023/08/12 11:30:51;;;;;;;19.92;12.18;;;;;;;23.60;77.04;100357.19;10387319;28;20053;-74
2023/08/12 11:35:52;;;;;;;15.52;11.38;;;;;;;23.79;77.39;100348.53;10386377;28;20057;-74
2023/08/12 11:40:54;;;;;;;17.98;11.05;;;;;;;23.94;77.82;100346.72;10380130;28;20066;-76
2023/08/12 11:45:56;;;;;;;14.85;9.60;;;;;;;23.91;78.30;100336.28;10373605;28;20054;-73
2023/08/12 11:50:58;;;;;;;13.20;9.00;;;;;;;23.93;78.79;100328.63;10378883;28;20119;-74
2023/08/12 11:56:00;;;;;;;10.20;5.97;;;;;;;23.72;78.74;100344.09;10375212;28;20042;-69
2023/08/12 12:01:02;;;;;;;6.78;4.53;;;;;;;23.61;79.09;100361.56;10380832;28;20364;-70
2023/08/12 12:06:03;;;;;;;6.28;4.43;;;;;;;23.61;79.02;100390.94;10381559;28;20302;-71
2023/08/12 12:11:06;;;;;;;7.38;3.47;;;;;;;23.64;79.44;100387.66;10380675;28;20102;-72
2023/08/12 12:16:10;;;;;;;5.13;4.07;;;;;;;23.73;79.15;100411.59;10361823;28;20064;-69
2023/08/12 12:21:20;;;;;;;5.32;4.82;;;;;;;23.84;79.28;100392.53;10379168;28;20046;-73
2023/08/12 12:26:22;;;;;;;4.47;3.83;;;;;;;23.88;78.76;100383.47;10380619;28;20053;-71
2023/08/12 12:31:23;;;;;;;6.38;3.53;;;;;;;23.90;78.66;100389.53;10380370;28;20049;-71
2023/08/12 12:36:25;;;;;;;5.65;3.35;;;;;;;23.89;78.49;100374.13;10377562;28;20073;-72
2023/08/12 12:41:27;;;;;;;4.80;3.30;;;;;;;23.88;78.36;100386.22;10380377;28;20069;-68
2023/08/12 12:46:30;;;;;;;4.40;3.22;;;;;;;24.01;78.52;100384.94;10378853;28;20118;-68
2023/08/12 12:51:31;;;;;;;4.05;3.13;;;;;;;24.31;77.94;100395.28;10378343;28;20042;-72
2023/08/12 12:56:33;;;;;;;3.05;2.55;;;;;;;24.69;77.44;100387.78;10378728;28;20294;-73
2023/08/12 13:01:34;;;;;;;3.28;2.08;;;;;;;24.85;76.36;100380.44;10380361;28;20149;-73
2023/08/12 13:06:36;;;;;;;4.40;1.98;;;;;;;25.12;75.72;100393.16;10377513;28;20048;-72
2023/08/12 13:11:37;;;;;;;6.57;2.25;;;;;;;25.39;74.94;100373.66;10380753;28;20034;-71
2023/08/12 13:16:39;;;;;;;2.30;1.80;;;;;;;25.51;74.02;100360.47;10380851;28;20046;-72
2023/08/12 13:21:40;;;;;;;3.20;1.52;;;;;;;25.91;73.15;100352.50;10380875;28;20049;-71
2023/08/12 13:26:42;;;;;;;1.92;1.00;;;;;;;26.30;71.88;100362.84;10381638;28;20056;-71
2023/08/12 13:31:43;;;;;;;1.75;1.27;;;;;;;26.87;70.94;100357.94;10384627;28;20113;-70
2023/08/12 13:36:45;;;;;;;1.52;1.20;;;;;;;27.33;69.74;100356.81;10385553;28;20050;-70
2023/08/12 13:41:47;;;;;;;2.75;0.80;;;;;;;27.63;68.00;100341.94;10384997;28;20237;-74
2023/08/12 13:46:51;;;;;;;1.98;0.60;;;;;;;28.03;66.54;100357.31;10381687;28;20050;-73
2023/08/12 13:51:52;;;;;;;1.83;0.90;;;;;;;28.70;65.52;100341.91;10380919;28;20042;-75
2023/08/12 13:56:54;;;;;;;2.50;0.60;;;;;;;29.44;64.35;100348.53;10386063;28;20042;-71
2023/08/12 14:01:55;;;;;;;1.42;0.70;;;;;;;29.13;64.31;100348.22;10408840;28;20097;-72
2023/08/12 14:06:57;;;;;;;2.17;0.80;;;;;;;28.89;63.65;100328.91;10392673;28;20258;-73
2023/08/12 14:11:58;;;;;;;1.92;0.70;;;;;;;28.56;63.73;100331.56;10406962;28;20041;-72
2023/08/12 14:17:00;;;;;;;3.65;0.85;;;;;;;28.80;63.01;100317.66;10409144;28;20042;-75
2023/08/12 14:22:01;;;;;;;2.58;1.00;;;;;;;29.22;62.29;100321.47;10394547;28;20038;-74
2023/08/12 14:27:03;;;;;;;0.95;0.80;;;;;;;29.64;61.06;100321.59;10394947;28;20125;-72
2023/08/12 14:32:06;;;;;;;3.85;0.98;;;;;;;29.84;61.12;100318.47;10381000;28;20277;-74
2023/08/12 14:37:08;;;;;;;2.72;0.95;;;;;;;29.88;60.49;100307.59;10383490;28;20069;-73
2023/08/12 14:42:10;;;;;;;1.40;0.73;;;;;;;29.71;59.72;100299.84;10381331;28;20088;-71
2023/08/12 14:47:11;;;;;;;1.65;0.60;;;;;;;29.61;58.36;100283.41;10388312;28;20057;-70
2023/08/12 14:52:20;;;;;;;1.17;0.77;;;;;;;29.95;57.54;100260.06;10391283;28;20354;-71
2023/08/12 14:57:21;;;;;;;4.20;0.90;;;;;;;30.12;56.90;100262.22;10407942;28;20073;-72
2023/08/12 15:02:23;;;;;;;0.98;0.65;;;;;;;30.12;57.20;100248.38;10407698;28;20045;-71
2023/08/12 15:07:25;;;;;;;3.20;0.90;;;;;;;29.78;56.96;100266.22;10408465;28;20058;-71
2023/08/12 15:12:29;;;;;;;2.88;1.00;;;;;;;29.66;57.57;100277.75;10391083;28;20050;-72
2023/08/12 15:17:31;;;;;;;1.65;0.60;;;;;;;29.82;56.85;100283.91;10400481;28;20393;-74
2023/08/12 15:22:32;;;;;;;1.27;0.60;;;;;;;29.78;56.56;100275.38;10381537;28;20105;-76
2023/08/12 15:27:34;;;;;;;2.05;1.35;;;;;;;30.41;55.98;100270.22;10382800;28;20056;-77
2023/08/12 15:32:36;;;;;;;1.20;0.60;;;;;;;30.14;56.30;100294.06;10388642;28;20053;-72
2023/08/12 15:37:41;;;;;;;1.98;1.05;;;;;;;30.31;56.37;100287.88;10383981;28;20057;-73
2023/08/12 15:42:42;;;;;;;1.77;0.82;;;;;;;30.59;55.45;100293.38;10379159;28;20045;-71
2023/08/12 15:47:43;;;;;;;2.97;0.60;;;;;;;30.39;55.55;100295.50;10380119;28;20085;-70
2023/08/12 15:52:45;;;;;;;5.43;1.27;;;;;;;29.96;56.48;100293.03;10380905;28;20076;-72
2023/08/12 15:57:46;;;;;;;3.08;0.90;;;;;;;29.65;57.11;100296.34;10380586;28;20050;-71
2023/08/12 16:02:48;;;;;;;5.75;0.80;;;;;;;29.37;56.83;100297.44;10376473;28;20042;-72
2023/08/12 16:07:49;;;;;;;2.10;0.80;;;;;;;29.18;57.50;100309.34;10381374;28;20116;-74
2023/08/12 16:12:51;;;;;;;3.75;1.25;;;;;;;29.16;57.99;100297.75;10378790;28;20080;-73
2023/08/12 16:17:52;;;;;;;3.58;0.90;;;;;;;29.04;57.81;100300.16;10379704;28;20073;-72
2023/08/12 16:22:54;;;;;;;2.53;1.10;;;;;;;28.78;58.86;100292.22;10377690;28;20048;-73
2023/08/12 16:27:56;;;;;;;1.95;0.85;;;;;;;28.71;59.24;100285.44;10382415;28;20457;-73
2023/08/12 16:32:58;;;;;;;5.38;1.10;;;;;;;28.45;59.15;100297.63;10374309;28;20049;-73
2023/08/12 16:37:59;;;;;;;2.33;1.17;;;;;;;28.32;59.11;100301.16;10392176;28;20022;-73
2023/08/12 16:43:01;;;;;;;2.13;0.70;;;;;;;28.02;58.40;100305.09;10379820;28;20326;-73
2023/08/12 16:48:02;;;;;;;0.82;0.70;;;;;;;27.82;57.73;100315.22;10381838;28;20068;-72
2023/08/12 16:53:04;;;;;;;3.70;0.60;;;;;;;27.74;57.16;100312.28;10377928;28;20045;-74
2023/08/12 16:58:05;;;;;;;2.30;0.60;;;;;;;27.61;57.75;100319.31;10377623;28;20574;-74
2023/08/12 17:03:07;;;;;;;0.98;0.50;;;;;;;27.61;57.23;100319.31;10378458;28;20561;-73
2023/08/12 17:08:08;;;;;;;0.93;0.50;;;;;;;27.61;57.13;100328.41;10385833;28;20105;-75
2023/08/12 17:13:10;;;;;;;1.35;0.40;;;;;;;27.69;56.55;100326.97;10387289;28;20109;-74
2023/08/12 17:18:11;;;;;;;3.15;0.52;;;;;;;27.87;55.54;100325.41;10386284;28;20117;-72
2023/08/12 17:23:12;;;;;;;1.85;0.43;;;;;;;27.93;55.52;100321.50;10384367;28;20041;-72
2023/08/12 17:28:14;;;;;;;1.15;0.38;;;;;;;28.01;55.21;100315.31;10384813;28;20068;-73
2023/08/12 17:33:16;;;;;;;1.40;0.40;;;;;;;27.96;55.29;100309.03;10382249;28;20065;-74
2023/08/12 17:38:17;;;;;;;1.77;0.75;;;;;;;27.75;55.42;100297.34;10388968;28;20438;-71
2023/08/12 17:43:19;;;;;;;1.90;0.40;;;;;;;27.54;55.90;100314.13;10385643;28;20060;-74
2023/08/12 17:48:20;;;;;;;0.68;0.50;;;;;;;27.33;55.64;100313.50;10384540;28;20299;-71
2023/08/12 17:53:22;;;;;;;2.65;0.60;;;;;;;27.12;56.26;100315.53;10384057;28;20057;-71
2023/08/12 17:58:23;;;;;;;0.98;0.50;;;;;;;27.14;56.11;100326.31;10382566;28;20057;-72
2023/08/12 18:03:24;;;;;;;2.92;0.70;;;;;;;27.06;56.68;100324.97;10380908;28;20089;-73
2023/08/12 18:08:26;;;;;;;1.33;0.68;;;;;;;26.99;56.78;100329.97;10386916;28;20038;-72
2023/08/12 18:13:28;;;;;;;1.10;0.60;;;;;;;26.90;57.16;100338.06;10382523;28;20322;-72
2023/08/12 18:18:30;;;;;;;4.88;1.42;;;;;;;26.82;57.17;100338.66;10384338;28;20038;-72
2023/08/12 18:23:31;;;;;;;2.85;0.90;;;;;;;26.73;57.76;100343.13;10385479;28;20282;-74
2023/08/12 18:28:33;;;;;;;3.22;0.90;;;;;;;26.52;57.75;100348.69;10383913;28;20053;-75
2023/08/12 18:33:34;;;;;;;3.88;0.77;;;;;;;26.26;58.41;100350.72;10368636;28;20370;-73
2023/08/12 18:38:36;;;;;;;2.03;0.85;;;;;;;26.23;58.36;100348.53;10383254;28;20066;-75
2023/08/12 18:43:37;;;;;;;1.67;0.75;;;;;;;26.01;58.68;100359.91;10382295;28;20070;-72
2023/08/12 18:48:39;;;;;;;1.88;0.80;;;;;;;25.88;58.79;100361.25;10385078;28;20046;-73
2023/08/12 18:53:40;;;;;;;4.50;0.70;;;;;;;25.85;59.50;100357.16;10378238;28;20050;-73
2023/08/12 18:58:42;;;;;;;2.97;0.60;;;;;;;25.71;59.64;100361.53;10381409;28;20475;-73
2023/08/12 19:03:43;;;;;;;4.93;0.93;;;;;;;25.69;59.30;100372.00;10392405;28;20059;-71
2023/08/12 19:08:45;;;;;;;2.78;0.70;;;;;;;25.60;59.54;100377.25;10379190;28;20049;-73
2023/08/12 19:13:47;;;;;;;3.13;0.60;;;;;;;25.60;59.65;100373.69;10379037;28;20060;-74
2023/08/12 19:18:49;;;;;;;2.38;0.80;;;;;;;25.56;59.70;100384.41;10382973;28;20448;-74
2023/08/12 19:23:50;;;;;;;3.33;0.70;;;;;;;25.51;59.58;100395.41;10381832;28;20073;-73
2023/08/12 19:28:52;;;;;;;2.08;0.82;;;;;;;25.45;59.66;100402.84;10383288;28;20342;-74
2023/08/12 19:33:54;;;;;;;5.80;0.82;;;;;;;25.33;60.72;100408.59;10383015;28;20061;-74
2023/08/12 19:38:55;;;;;;;5.15;1.23;;;;;;;25.22;60.76;100412.47;10381908;28;20397;-75
2023/08/12 19:43:58;;;;;;;4.22;0.70;;;;;;;25.08;61.10;100420.38;10378261;28;20438;-72
2023/08/12 19:49:00;;;;;;;2.40;1.35;;;;;;;24.94;61.37;100422.81;10383014;28;20041;-74
2023/08/12 19:54:01;;;;;;;5.30;0.85;;;;;;;24.81;61.87;100431.56;10401470;28;20172;-73
2023/08/12 19:59:03;;;;;;;3.70;1.00;;;;;;;24.70;62.85;100438.94;10405447;28;20068;-72
2023/08/12 20:04:04;;;;;;;5.40;0.95;;;;;;;24.63;62.88;100445.78;10389068;28;20069;-72
2023/08/12 20:09:06;;;;;;;5.32;1.88;;;;;;;24.55;63.07;100455.38;10387683;28;20063;-74
2023/08/12 20:14:08;;;;;;;3.42;1.73;;;;;;;24.43;62.94;100452.78;10408848;28;20038;-73
2023/08/12 20:19:50;;;;;;;3.15;1.00;;;;;;;24.34;63.67;100449.69;10406167;28;20439;-72
2023/08/12 20:25:47;;;;;;;3.63;1.75;;;;;;;24.23;63.58;100455.38;10404065;28;20033;-72
2023/08/12 20:31:42;;;;;;;2.15;1.05;;;;;;;24.15;63.86;100468.53;10389745;28;20057;-71
2023/08/12 20:37:38;;;;;;;3.38;0.90;;;;;;;24.03;64.19;100469.81;10387207;28;20041;-74
2023/08/12 20:43:33;;;;;;;2.63;1.15;;;;;;;23.94;64.79;100464.81;10398471;28;20041;-74
2023/08/12 20:49:29;;;;;;;4.00;1.48;;;;;;;23.76;65.12;100467.91;10397147;28;20408;-73
2023/08/12 20:55:24;;;;;;;6.15;1.10;;;;;;;23.67;65.01;100466.72;10397523;28;20057;-73
2023/08/12 21:01:21;;;;;;;2.95;1.10;;;;;;;23.64;65.15;100465.34;10410722;28;20061;-73
2023/08/12 21:07:17;;;;;;;2.65;1.25;;;;;;;23.56;65.66;100474.03;10408420;28;20077;-72
2023/08/12 21:13:12;;;;;;;7.55;1.67;;;;;;;23.55;65.44;100475.94;10396654;28;20051;-74
2023/08/12 21:18:28;;;;;;;1.80;1.02;;;;;;;23.42;66.00;100481.88;10393826;28;20112;-72
2023/08/12 21:23:29;;;;;;;2.83;0.80;;;;;;;23.35;66.29;100486.72;10385343;28;20062;-73
2023/08/12 21:28:31;;;;;;;2.25;0.90;;;;;;;23.31;66.71;100482.84;10387186;28;20046;-75
2023/08/12 21:33:32;;;;;;;1.95;1.00;;;;;;;23.31;66.50;100486.41;10382846;28;20246;-77
2023/08/12 21:38:33;;;;;;;3.03;1.08;;;;;;;23.33;66.79;100486.16;10386585;28;20120;-77
2023/08/12 21:43:35;;;;;;;3.58;1.25;;;;;;;23.28;66.94;100505.28;10386473;28;20073;-76
2023/08/12 21:48:36;;;;;;;4.95;1.27;;;;;;;23.21;66.81;100507.41;10382941;28;20048;-77
2023/08/12 21:53:38;;;;;;;2.47;1.08;;;;;;;23.22;66.84;100515.34;10385227;28;20072;-77
2023/08/12 21:58:40;;;;;;;2.67;1.40;;;;;;;23.26;67.01;100518.44;10382395;28;20385;-75
2023/08/12 22:03:41;;;;;;;3.88;1.80;;;;;;;23.28;67.22;100513.50;10384916;28;20026;-75
2023/08/12 22:08:43;;;;;;;4.78;2.25;;;;;;;23.29;67.11;100510.53;10380097;28;20346;-75
2023/08/12 22:13:44;;;;;;;4.68;1.63;;;;;;;23.28;67.50;100506.13;10385009;28;20054;-75
2023/08/12 22:18:46;;;;;;;3.17;2.42;;;;;;;23.35;67.50;100504.00;10385837;28;20045;-75
2023/08/12 22:23:47;;;;;;;4.40;2.72;;;;;;;23.39;67.51;100498.00;10378757;28;20118;-76
2023/08/12 22:28:49;;;;;;;3.45;1.95;;;;;;;23.30;67.65;100497.63;10384017;28;20389;-72
2023/08/12 22:33:50;;;;;;;3.92;1.85;;;;;;;23.25;67.41;100497.59;10384330;28;20069;-72
2023/08/12 22:38:52;;;;;;;4.13;2.05;;;;;;;23.24;67.83;100498.66;10385579;28;20080;-71
2023/08/12 22:43:53;;;;;;;3.35;2.00;;;;;;;23.16;67.95;100498.03;10384961;28;20050;-71
2023/08/12 22:48:55;;;;;;;4.35;1.95;;;;;;;23.11;68.12;100497.16;10385174;28;20072;-72
2023/08/12 22:54:00;;;;;;;3.22;1.60;;;;;;;23.04;68.13;100485.53;10383789;28;20042;-72
2023/08/12 22:59:01;;;;;;;3.28;1.35;;;;;;;22.97;68.42;100482.97;10383454;28;20049;-71
2023/08/12 23:04:03;;;;;;;2.30;0.90;;;;;;;22.91;68.42;100473.03;10382248;28;20044;-71
2023/08/12 23:09:05;;;;;;;2.78;0.70;;;;;;;22.80;68.60;100469.31;10380960;28;20068;-72
2023/08/12 23:14:07;;;;;;;2.03;0.65;;;;;;;22.80;68.49;100474.78;10382784;28;20212;-72
2023/08/12 23:19:08;;;;;;;3.78;0.70;;;;;;;22.89;68.08;100481.50;10382218;28;20042;-72